createdAt,value
2023-11-23T00:00:14.191Z,0.494
2023-11-23T00:01:14.186Z,0.444
2023-11-23T00:02:15.409Z,0.420
2023-11-23T00:03:14.096Z,0.470
2023-11-23T00:04:14.937Z,0.457
2023-11-23T00:06:14.508Z,0.433
2023-11-23T00:07:14.103Z,0.460
2023-11-23T00:08:14.673Z,0.476
2023-11-23T00:09:14.340Z,0.500
2023-11-23T00:11:14.480Z,0.412
2023-11-23T00:12:14.232Z,0.433
2023-11-23T00:13:14.833Z,0.486
2023-11-23T00:14:14.418Z,0.465
2023-11-23T00:15:14.023Z,0.468
2023-11-23T00:16:15.039Z,0.494
2023-11-23T00:17:14.730Z,0.428
2023-11-23T00:18:14.448Z,0.420
2023-11-23T00:21:14.491Z,0.278
2023-11-23T00:22:14.001Z,0.291
2023-11-23T00:23:14.557Z,0.283
2023-11-23T00:24:14.271Z,0.201
2023-11-23T00:25:14.867Z,0.171
2023-11-23T00:26:14.344Z,0.166
2023-11-23T00:27:15.120Z,0.113
2023-11-23T00:28:14.833Z,0.123
2023-11-23T00:29:14.353Z,0.094
2023-11-23T00:30:15.035Z,0.032
2023-11-23T00:31:14.716Z,-0.010
2023-11-23T00:34:14.761Z,0.059
2023-11-23T00:35:14.440Z,0.008
2023-11-23T00:38:14.202Z,-0.018
2023-11-23T00:39:15.271Z,-0.034
2023-11-23T00:40:14.859Z,-0.082
2023-11-23T00:42:14.451Z,-0.002
2023-11-23T00:44:14.794Z,-0.034
2023-11-23T00:45:14.524Z,0.038
2023-11-23T00:46:14.234Z,0.027
2023-11-23T00:47:14.986Z,0.011
2023-11-23T00:48:14.797Z,-0.042
2023-11-23T00:50:14.172Z,-0.133
2023-11-23T00:51:14.926Z,-0.128
2023-11-23T00:52:14.468Z,-0.154
2023-11-23T00:53:13.936Z,-0.128
2023-11-23T00:54:14.712Z,-0.187
2023-11-23T00:55:14.366Z,-0.168
2023-11-23T00:56:13.868Z,-0.152
2023-11-23T00:57:14.578Z,-0.208
2023-11-23T00:58:14.227Z,-0.243
2023-11-23T00:59:14.760Z,-0.227
2023-11-23T01:00:14.571Z,-0.237
2023-11-23T01:01:14.730Z,-0.128
2023-11-23T01:02:15.271Z,-0.146
2023-11-23T01:03:14.629Z,-0.133
2023-11-23T01:04:14.957Z,-0.141
2023-11-23T01:05:14.527Z,-0.069
2023-11-23T01:06:14.111Z,-0.026
2023-11-23T01:07:14.662Z,-0.080
2023-11-23T01:10:14.609Z,0.011
2023-11-23T01:11:14.128Z,0.011
2023-11-23T01:12:14.882Z,0.048
2023-11-23T01:13:14.507Z,0.032
2023-11-23T01:14:14.461Z,0.129
2023-11-23T01:16:14.813Z,0.083
2023-11-23T01:17:14.404Z,0.107
2023-11-23T01:18:13.985Z,0.105
2023-11-23T01:19:14.816Z,0.147
2023-11-23T01:20:14.334Z,0.153
2023-11-23T01:23:14.396Z,0.113
2023-11-23T01:24:14.003Z,0.153
2023-11-23T01:25:14.627Z,0.123
2023-11-23T01:26:14.155Z,0.145
2023-11-23T01:27:14.838Z,0.113
2023-11-23T01:28:14.352Z,0.123
2023-11-23T01:29:14.879Z,0.083
2023-11-23T01:30:14.576Z,0.064
2023-11-23T01:32:14.899Z,0.091
2023-11-23T01:33:14.845Z,0.048
2023-11-23T01:34:15.501Z,0.059
2023-11-23T01:35:14.573Z,0.051
2023-11-23T01:37:14.658Z,-0.016
2023-11-23T01:38:14.156Z,-0.029
2023-11-23T01:39:14.885Z,-0.008
2023-11-23T01:40:14.585Z,-0.018
2023-11-23T01:41:14.071Z,-0.053
2023-11-23T01:42:15.102Z,-0.098
2023-11-23T01:43:14.783Z,-0.090
2023-11-23T01:44:14.327Z,-0.013
2023-11-23T01:45:15.020Z,-0.058
2023-11-23T01:46:14.990Z,-0.064
2023-11-23T01:47:14.745Z,-0.026
2023-11-23T01:48:14.664Z,-0.010
2023-11-23T01:50:17.298Z,0.032
2023-11-23T01:52:14.814Z,-0.010
2023-11-23T01:53:14.372Z,-0.010
2023-11-23T01:54:15.039Z,0.059
2023-11-23T01:55:14.726Z,0.089
2023-11-23T01:56:14.225Z,0.163
2023-11-23T01:57:14.851Z,0.182
2023-11-23T01:58:14.438Z,0.179
2023-11-23T01:59:13.933Z,0.185
2023-11-23T02:00:14.775Z,0.174
2023-11-23T02:01:14.433Z,0.145
2023-11-23T02:02:14.186Z,0.227
2023-11-23T02:03:15.467Z,0.219
2023-11-23T02:04:14.290Z,0.211
2023-11-23T02:05:13.950Z,0.214
2023-11-23T02:06:14.577Z,0.273
2023-11-23T02:07:14.380Z,0.273
2023-11-23T02:08:14.839Z,0.278
2023-11-23T02:09:14.545Z,0.291
2023-11-23T02:10:14.279Z,0.283
2023-11-23T02:11:14.839Z,0.273
2023-11-23T02:12:14.491Z,0.235
2023-11-23T02:13:14.196Z,0.278
2023-11-23T02:14:14.716Z,0.305
2023-11-23T02:15:14.802Z,0.275
2023-11-23T02:17:14.163Z,0.305
2023-11-23T02:18:15.304Z,0.297
2023-11-23T02:19:13.950Z,0.307
2023-11-23T02:20:14.504Z,0.291
2023-11-23T02:21:14.019Z,0.283
2023-11-23T02:22:14.723Z,0.302
2023-11-23T02:24:15.017Z,0.291
2023-11-23T02:25:14.749Z,0.289
2023-11-23T02:26:14.252Z,0.310
2023-11-23T02:27:15.072Z,0.289
2023-11-23T02:28:14.753Z,0.337
2023-11-23T02:29:14.293Z,0.313
2023-11-23T02:30:15.159Z,0.342
2023-11-23T02:32:14.733Z,0.385
2023-11-23T02:33:14.649Z,0.417
2023-11-23T02:34:14.586Z,0.401
2023-11-23T02:35:14.058Z,0.425
2023-11-23T02:36:14.816Z,0.430
2023-11-23T02:37:14.428Z,0.460
2023-11-23T02:38:13.944Z,0.468
2023-11-23T02:39:14.720Z,0.430
2023-11-23T02:41:14.831Z,0.438
2023-11-23T02:42:14.561Z,0.500
2023-11-23T02:43:14.276Z,0.460
2023-11-23T02:44:14.885Z,0.452
2023-11-23T02:46:14.380Z,0.460
2023-11-23T02:47:14.166Z,0.486
2023-11-23T02:48:15.098Z,0.454
2023-11-23T02:51:14.036Z,0.454
2023-11-23T02:52:14.718Z,0.476
2023-11-23T02:53:14.232Z,0.428
2023-11-23T02:54:14.862Z,0.390
2023-11-23T02:55:14.603Z,0.462
2023-11-23T02:56:14.095Z,0.430
2023-11-23T02:57:14.768Z,0.444
2023-11-23T02:58:14.348Z,0.393
2023-11-23T02:59:14.904Z,0.404
2023-11-23T03:00:14.765Z,0.414
2023-11-23T03:02:14.484Z,0.516
2023-11-23T03:03:14.786Z,0.513
2023-11-23T03:04:14.846Z,0.521
2023-11-23T03:05:14.549Z,0.540
2023-11-23T03:06:14.227Z,0.550
2023-11-23T03:09:14.362Z,0.457
2023-11-23T03:10:14.304Z,0.454
2023-11-23T03:11:14.801Z,0.476
2023-11-23T03:12:14.433Z,0.476
2023-11-23T03:13:14.083Z,0.492
2023-11-23T03:14:14.620Z,0.454
2023-11-23T03:15:14.337Z,0.500
2023-11-23T03:17:15.020Z,0.465
2023-11-23T03:18:19.721Z,0.457
2023-11-23T03:20:14.475Z,0.452
2023-11-23T03:21:14.330Z,0.481
2023-11-23T03:22:14.925Z,0.473
2023-11-23T03:23:14.430Z,0.492
2023-11-23T03:24:14.091Z,0.510
2023-11-23T03:25:14.855Z,0.460
2023-11-23T03:26:14.347Z,0.502
2023-11-23T03:27:15.042Z,0.492
2023-11-23T03:28:14.714Z,0.476
2023-11-23T03:29:14.248Z,0.489
2023-11-23T03:30:15.057Z,0.454
2023-11-23T03:31:14.607Z,0.454
2023-11-23T03:33:15.180Z,0.401
2023-11-23T03:35:14.686Z,0.393
2023-11-23T03:36:14.361Z,0.318
2023-11-23T03:37:13.948Z,0.273
2023-11-23T03:38:14.470Z,0.222
2023-11-23T03:39:13.988Z,0.147
2023-11-23T03:40:14.726Z,0.110
2023-11-23T03:41:14.293Z,0.123
2023-11-23T03:42:15.058Z,0.062
2023-11-23T03:43:14.821Z,0.027
2023-11-23T03:46:15.101Z,0.011
2023-11-23T03:47:14.871Z,0.022
2023-11-23T03:48:14.857Z,0.059
2023-11-23T03:50:14.253Z,0.097
2023-11-23T03:51:14.997Z,0.150
2023-11-23T03:52:14.741Z,0.145
2023-11-23T03:53:14.296Z,0.150
2023-11-23T03:54:15.209Z,0.203
2023-11-23T03:55:13.970Z,0.238
2023-11-23T03:56:14.451Z,0.275
2023-11-23T03:57:14.094Z,0.353
2023-11-23T03:58:14.741Z,0.345
2023-11-23T03:59:14.316Z,0.356
2023-11-23T04:00:15.328Z,0.302
2023-11-23T04:01:14.105Z,0.321
2023-11-23T04:02:15.185Z,0.291
2023-11-23T04:03:14.419Z,0.289
2023-11-23T04:04:14.434Z,0.356
2023-11-23T04:05:14.008Z,0.299
2023-11-23T04:06:14.641Z,0.294
2023-11-23T04:07:14.247Z,0.262
2023-11-23T04:08:14.745Z,0.278
2023-11-23T04:09:14.488Z,0.233
2023-11-23T04:10:14.137Z,0.214
2023-11-23T04:11:14.645Z,0.097
2023-11-23T04:12:14.225Z,0.091
2023-11-23T04:15:14.277Z,0.046
2023-11-23T04:16:14.149Z,-0.018
2023-11-23T04:17:14.809Z,-0.069
2023-11-23T04:18:14.501Z,-0.066
2023-11-23T04:20:13.945Z,-0.125
2023-11-23T04:21:15.037Z,-0.176
2023-11-23T04:22:14.602Z,-0.141
2023-11-23T04:25:14.465Z,-0.240
2023-11-23T04:26:13.970Z,-0.283
2023-11-23T04:27:14.775Z,-0.251
2023-11-23T04:28:14.672Z,-0.240
2023-11-23T04:29:14.164Z,-0.243
2023-11-23T04:30:14.963Z,-0.299
2023-11-23T04:31:14.547Z,-0.331
2023-11-23T04:32:13.998Z,-0.400
2023-11-23T04:33:15.540Z,-0.459
2023-11-23T04:34:14.902Z,-0.373
2023-11-23T04:36:14.655Z,-0.227
2023-11-23T04:37:14.308Z,-0.357
2023-11-23T04:38:14.795Z,-0.365
2023-11-23T04:39:14.577Z,-0.339
2023-11-23T04:40:14.288Z,-0.339
2023-11-23T04:41:14.788Z,-0.395
2023-11-23T04:42:14.462Z,-0.355
2023-11-23T04:43:14.169Z,-0.416
2023-11-23T04:44:14.780Z,-0.419
2023-11-23T04:45:14.332Z,-0.400
2023-11-23T04:48:15.041Z,-0.491
2023-11-23T04:49:15.019Z,-0.451
2023-11-23T04:50:14.545Z,-0.395
2023-11-23T04:51:14.357Z,-0.331
2023-11-23T04:52:13.977Z,-0.411
2023-11-23T04:53:14.542Z,-0.422
2023-11-23T04:54:14.221Z,-0.427
2023-11-23T04:55:14.913Z,-0.510
2023-11-23T04:56:14.447Z,-0.504
2023-11-23T04:57:14.157Z,-0.336
2023-11-23T04:58:14.854Z,-0.440
2023-11-23T05:00:14.546Z,-0.462
2023-11-23T05:02:14.411Z,-0.419
2023-11-23T05:03:14.444Z,-0.422
2023-11-23T05:04:15.990Z,-0.462
2023-11-23T05:05:14.900Z,-0.582
2023-11-23T05:06:14.507Z,-0.630
2023-11-23T05:08:14.828Z,-0.582
2023-11-23T05:09:14.517Z,-0.616
2023-11-23T05:10:14.112Z,-0.571
2023-11-23T05:11:14.683Z,-0.624
2023-11-23T05:12:14.283Z,-0.614
2023-11-23T05:13:13.972Z,-0.651
2023-11-23T05:14:14.533Z,-0.657
2023-11-23T05:15:14.222Z,-0.686
2023-11-23T05:18:14.600Z,-0.654
2023-11-23T05:21:14.462Z,-0.705
2023-11-23T05:22:13.976Z,-0.670
2023-11-23T05:23:14.475Z,-0.790
2023-11-23T05:24:14.146Z,-0.771
2023-11-23T05:25:14.847Z,-0.822
2023-11-23T05:26:14.384Z,-0.763
2023-11-23T05:27:13.954Z,-0.769
2023-11-23T05:28:14.705Z,-0.822
2023-11-23T05:29:14.231Z,-0.771
2023-11-23T05:30:15.037Z,-0.833
2023-11-23T05:32:14.588Z,-0.774
2023-11-23T05:34:14.587Z,-0.790
2023-11-23T05:35:14.227Z,-0.878
2023-11-23T05:36:14.999Z,-0.782
2023-11-23T05:38:14.074Z,-0.793
2023-11-23T05:39:14.990Z,-0.729
2023-11-23T05:40:15.188Z,-0.787
2023-11-23T05:42:15.131Z,-1.081
2023-11-23T05:43:15.696Z,-0.950
2023-11-23T05:44:14.208Z,-0.910
2023-11-23T05:45:14.938Z,-0.854
2023-11-23T05:46:18.588Z,-0.731
2023-11-23T05:48:14.073Z,-0.726
2023-11-23T05:49:14.735Z,-0.729
2023-11-23T05:50:14.228Z,-0.715
2023-11-23T05:51:14.908Z,-0.763
2023-11-23T05:52:14.555Z,-0.811
2023-11-23T05:53:13.988Z,-0.795
2023-11-23T05:54:14.878Z,-0.806
2023-11-23T05:55:14.496Z,-0.894
2023-11-23T05:56:13.994Z,-0.803
2023-11-23T05:57:14.728Z,-0.806
2023-11-23T05:58:14.409Z,-0.755
2023-11-23T05:59:13.924Z,-0.702
2023-11-23T06:00:14.577Z,-0.691
2023-11-23T06:01:17.960Z,-0.705
2023-11-23T06:04:15.489Z,-0.686
2023-11-23T06:05:15.552Z,-0.603
2023-11-23T06:07:13.888Z,-0.507
2023-11-23T06:08:14.460Z,-0.422
2023-11-23T06:09:14.076Z,-0.419
2023-11-23T06:10:14.832Z,-0.438
2023-11-23T06:11:14.366Z,-0.416
2023-11-23T06:12:14.941Z,-0.464
2023-11-23T06:13:14.523Z,-0.427
2023-11-23T06:14:14.014Z,-0.373
2023-11-23T06:16:14.832Z,-0.317
2023-11-23T06:18:19.951Z,-0.392
2023-11-23T06:19:14.711Z,-0.381
2023-11-23T06:21:14.496Z,-0.283
2023-11-23T06:22:14.043Z,-0.275
2023-11-23T06:23:14.620Z,-0.176
2023-11-23T06:24:14.303Z,-0.221
2023-11-23T06:25:13.919Z,-0.219
2023-11-23T06:26:14.489Z,-0.192
2023-11-23T06:27:14.273Z,-0.197
2023-11-23T06:28:18.962Z,-0.181
2023-11-23T06:31:14.846Z,-0.181
2023-11-23T06:32:14.564Z,-0.144
2023-11-23T06:33:14.550Z,-0.101
2023-11-23T06:34:14.476Z,-0.090
2023-11-23T06:35:13.949Z,-0.066
2023-11-23T06:36:14.698Z,0.024
2023-11-23T06:38:14.144Z,0.008
2023-11-23T06:39:14.875Z,0.014
2023-11-23T06:40:14.547Z,0.024
2023-11-23T06:41:14.050Z,0.075
2023-11-23T06:42:14.847Z,0.062
2023-11-23T06:43:14.579Z,0.054
2023-11-23T06:44:14.129Z,0.078
2023-11-23T06:45:14.858Z,0.086
2023-11-23T06:47:14.758Z,0.123
2023-11-23T06:48:14.729Z,0.150
2023-11-23T06:49:17.249Z,0.179
2023-11-23T06:50:14.779Z,0.187
2023-11-23T06:51:14.380Z,0.198
2023-11-23T06:54:14.350Z,0.257
2023-11-23T06:55:14.101Z,0.307
2023-11-23T06:56:14.706Z,0.307
2023-11-23T06:57:14.256Z,0.187
2023-11-23T06:58:14.487Z,0.195
2023-11-23T07:02:14.915Z,0.051
2023-11-23T07:03:14.972Z,0.027
2023-11-23T07:04:17.567Z,0.035
2023-11-23T07:05:14.152Z,-0.016
2023-11-23T07:06:15.325Z,0.000
2023-11-23T07:07:14.120Z,-0.016
2023-11-23T07:08:14.914Z,-0.064
2023-11-23T07:09:15.675Z,-0.024
2023-11-23T07:10:19.811Z,-0.058
2023-11-23T07:11:14.213Z,0.027
2023-11-23T07:12:14.962Z,-0.005
2023-11-23T07:13:14.824Z,-0.026
2023-11-23T07:14:15.580Z,-0.021
2023-11-23T07:15:14.508Z,-0.082
2023-11-23T07:16:14.458Z,-0.061
2023-11-23T07:17:14.776Z,-0.053
2023-11-23T07:18:15.370Z,-0.034
2023-11-23T07:19:14.731Z,0.024
2023-11-23T07:20:14.406Z,0.089
2023-11-23T07:21:15.350Z,0.086
2023-11-23T07:22:14.064Z,0.131
2023-11-23T07:23:14.676Z,0.134
2023-11-23T07:24:14.234Z,0.265
2023-11-23T07:25:13.940Z,0.358
2023-11-23T07:26:14.568Z,0.337
2023-11-23T07:27:14.332Z,0.444
2023-11-23T07:28:14.006Z,0.492
2023-11-23T07:29:14.493Z,0.575
2023-11-23T07:30:14.467Z,0.641
2023-11-23T07:33:14.898Z,0.769
2023-11-23T07:35:14.612Z,0.927
2023-11-23T07:36:14.350Z,0.911
2023-11-23T07:37:14.029Z,0.818
2023-11-23T07:38:16.262Z,0.847
2023-11-23T07:39:14.961Z,0.831
2023-11-23T07:40:15.584Z,0.890
2023-11-23T07:41:14.395Z,0.914
2023-11-23T07:42:16.231Z,0.847
2023-11-23T07:43:14.804Z,0.930
2023-11-23T07:44:14.327Z,0.970
2023-11-23T07:45:15.206Z,0.924
2023-11-23T07:46:14.006Z,0.994
2023-11-23T07:47:14.889Z,0.983
2023-11-23T07:48:14.745Z,0.935
2023-11-23T07:49:14.381Z,1.055
2023-11-23T07:50:13.889Z,1.010
2023-11-23T07:51:14.519Z,1.111
2023-11-23T07:53:14.773Z,1.074
2023-11-23T07:54:14.363Z,1.159
2023-11-23T07:55:14.074Z,1.119
2023-11-23T07:56:14.616Z,1.141
2023-11-23T07:57:14.309Z,1.213
2023-11-23T07:58:14.363Z,1.178
2023-11-23T07:59:14.198Z,1.199
2023-11-23T08:00:15.796Z,1.258
2023-11-23T08:01:14.704Z,1.245
2023-11-23T08:02:14.297Z,1.269
2023-11-23T08:03:15.211Z,1.223
2023-11-23T08:04:14.567Z,1.322
2023-11-23T08:05:14.864Z,1.352
2023-11-23T08:06:14.607Z,1.234
2023-11-23T08:07:14.711Z,1.304
2023-11-23T08:08:14.318Z,1.325
2023-11-23T08:09:15.176Z,1.344
2023-11-23T08:10:14.823Z,1.341
2023-11-23T08:11:14.290Z,1.378
2023-11-23T08:12:14.976Z,1.394
2023-11-23T08:13:14.760Z,1.357
2023-11-23T08:14:14.366Z,1.330
2023-11-23T08:16:14.034Z,1.434
2023-11-23T08:17:14.889Z,1.400
2023-11-23T08:18:14.728Z,1.386
2023-11-23T08:19:14.778Z,1.429
2023-11-23T08:21:14.260Z,1.549
2023-11-23T08:22:14.817Z,1.461
2023-11-23T08:24:14.343Z,1.520
2023-11-23T08:25:13.973Z,1.501
2023-11-23T08:26:14.515Z,1.581
2023-11-23T08:27:14.155Z,1.517
2023-11-23T08:28:14.799Z,1.555
2023-11-23T08:29:14.485Z,1.696
2023-11-23T08:30:14.158Z,1.683
2023-11-23T08:31:14.374Z,1.699
2023-11-23T08:32:14.250Z,1.747
2023-11-23T08:33:15.114Z,1.795
2023-11-23T08:34:13.897Z,1.709
2023-11-23T08:35:14.414Z,1.723
2023-11-23T08:36:14.083Z,1.717
2023-11-23T08:37:13.922Z,1.688
2023-11-23T08:38:14.545Z,1.728
2023-11-23T08:40:13.974Z,1.814
2023-11-23T08:41:14.544Z,1.827
2023-11-23T08:42:14.278Z,1.723
2023-11-23T08:43:14.016Z,1.715
2023-11-23T08:44:14.841Z,1.872
2023-11-23T08:45:14.957Z,1.875
2023-11-23T08:46:14.747Z,1.907
2023-11-23T08:47:14.523Z,1.773
2023-11-23T08:49:14.160Z,1.846
2023-11-23T08:50:14.693Z,1.923
2023-11-23T08:51:14.422Z,1.870
2023-11-23T08:52:14.095Z,1.880
2023-11-23T08:53:14.839Z,1.854
2023-11-23T08:54:14.518Z,1.971
2023-11-23T08:55:14.146Z,2.086
2023-11-23T08:56:17.522Z,2.097
2023-11-23T08:57:14.248Z,2.142
2023-11-23T08:58:14.892Z,2.107
2023-11-23T08:59:14.359Z,2.113
2023-11-23T09:00:14.422Z,2.150
2023-11-23T09:02:24.892Z,2.278
2023-11-23T09:03:15.126Z,2.270
2023-11-23T09:04:15.537Z,2.214
2023-11-23T09:05:15.081Z,2.334
2023-11-23T09:06:14.435Z,2.270
2023-11-23T09:07:14.237Z,2.313
2023-11-23T09:08:14.356Z,2.441
2023-11-23T09:09:14.971Z,2.460
2023-11-23T09:10:14.605Z,2.462
2023-11-23T09:11:14.241Z,2.441
2023-11-23T09:12:14.991Z,2.527
2023-11-23T09:13:14.660Z,2.537
2023-11-23T09:14:14.187Z,2.532
2023-11-23T09:15:15.039Z,2.492
2023-11-23T09:16:14.934Z,2.615
2023-11-23T09:18:14.439Z,2.775
2023-11-23T09:19:14.716Z,2.802
2023-11-23T09:20:14.380Z,2.775
2023-11-23T09:22:15.243Z,2.786
2023-11-23T09:24:14.642Z,2.705
2023-11-23T09:25:14.277Z,2.836
2023-11-23T09:26:14.807Z,2.740
2023-11-23T09:27:14.531Z,2.751
2023-11-23T09:28:14.088Z,2.964
2023-11-23T09:29:14.678Z,2.871
2023-11-23T09:30:14.485Z,2.794
2023-11-23T09:31:14.263Z,2.906
2023-11-23T09:34:14.799Z,3.045
2023-11-23T09:35:14.686Z,3.085
2023-11-23T09:36:14.377Z,3.042
2023-11-23T09:37:14.091Z,3.002
2023-11-23T09:38:14.646Z,3.154
2023-11-23T09:39:14.518Z,3.133
2023-11-23T09:40:14.788Z,3.202
2023-11-23T09:41:14.431Z,3.280
2023-11-23T09:42:13.983Z,3.341
2023-11-23T09:43:14.704Z,3.333
2023-11-23T09:44:14.212Z,3.378
2023-11-23T09:45:15.026Z,3.285
2023-11-23T09:47:13.957Z,3.365
2023-11-23T09:48:15.088Z,3.365
2023-11-23T09:49:14.624Z,3.282
2023-11-23T09:50:14.390Z,3.328
2023-11-23T09:51:14.090Z,3.312
2023-11-23T09:52:14.761Z,3.215
2023-11-23T09:53:14.669Z,3.264
2023-11-23T09:54:14.419Z,3.322
2023-11-23T09:56:14.636Z,3.426
2023-11-23T09:57:14.322Z,3.493
2023-11-23T09:58:13.957Z,3.426
2023-11-23T09:59:14.554Z,3.432
2023-11-23T10:00:14.262Z,3.378
2023-11-23T10:01:14.004Z,3.499
2023-11-23T10:02:16.175Z,3.474
2023-11-23T10:03:15.170Z,3.525
2023-11-23T10:04:14.389Z,3.571
2023-11-23T10:05:14.786Z,3.611
2023-11-23T10:06:14.586Z,3.584
2023-11-23T10:07:14.307Z,3.563
2023-11-23T10:08:14.844Z,3.573
2023-11-23T10:09:14.492Z,3.667
2023-11-23T10:12:14.549Z,3.771
2023-11-23T10:13:15.364Z,3.824
2023-11-23T10:14:13.946Z,3.787
2023-11-23T10:15:14.959Z,3.827
2023-11-23T10:16:14.993Z,3.880
2023-11-23T10:17:14.815Z,3.910
2023-11-23T10:20:14.388Z,4.025
2023-11-23T10:21:14.038Z,3.883
2023-11-23T10:22:14.712Z,3.934
2023-11-23T10:23:14.553Z,3.942
2023-11-23T10:24:14.214Z,3.886
2023-11-23T10:25:13.930Z,3.968
2023-11-23T10:26:14.550Z,3.979
2023-11-23T10:28:14.261Z,3.968
2023-11-23T10:29:16.412Z,3.944
2023-11-23T10:30:14.132Z,3.899
2023-11-23T10:31:18.461Z,4.043
2023-11-23T10:34:14.742Z,3.883
2023-11-23T10:35:14.348Z,3.928
2023-11-23T10:36:15.261Z,4.115
2023-11-23T10:37:13.941Z,4.123
2023-11-23T10:38:14.558Z,4.094
2023-11-23T10:40:17.888Z,4.041
2023-11-23T10:41:14.429Z,4.097
2023-11-23T10:42:14.122Z,4.158
2023-11-23T10:43:14.690Z,4.220
2023-11-23T10:44:14.122Z,4.260
2023-11-23T10:45:14.844Z,4.236
2023-11-23T10:46:14.689Z,4.246
2023-11-23T10:47:14.352Z,4.209
2023-11-23T10:48:15.699Z,4.300
2023-11-23T10:49:14.661Z,4.388
2023-11-23T10:50:14.172Z,4.476
2023-11-23T10:51:14.891Z,4.396
2023-11-23T10:52:14.546Z,4.374
2023-11-23T10:53:14.109Z,4.428
2023-11-23T10:54:14.831Z,4.369
2023-11-23T10:55:14.490Z,4.382
2023-11-23T10:56:17.662Z,4.414
2023-11-23T10:57:14.309Z,4.503
2023-11-23T10:58:14.793Z,4.639
2023-11-23T10:59:14.315Z,4.585
2023-11-23T11:00:15.264Z,4.516
2023-11-23T11:01:15.037Z,4.615
2023-11-23T11:02:15.053Z,4.601
2023-11-23T11:03:14.878Z,4.615
2023-11-23T11:04:15.122Z,4.692
2023-11-23T11:06:14.916Z,4.625
2023-11-23T11:08:14.637Z,4.647
2023-11-23T11:09:14.786Z,4.633
2023-11-23T11:10:14.385Z,4.663
2023-11-23T11:11:13.950Z,4.583
2023-11-23T11:12:14.725Z,4.615
2023-11-23T11:13:14.757Z,4.652
2023-11-23T11:14:14.548Z,4.748
2023-11-23T11:16:14.098Z,4.730
2023-11-23T11:17:14.670Z,4.716
2023-11-23T11:18:14.880Z,4.794
2023-11-23T11:20:14.340Z,4.794
2023-11-23T11:21:15.413Z,4.689
2023-11-23T11:22:14.395Z,4.836
2023-11-23T11:23:14.036Z,4.866
2023-11-23T11:24:14.829Z,4.884
2023-11-23T11:25:14.712Z,4.914
2023-11-23T11:26:14.732Z,4.914
2023-11-23T11:27:14.850Z,4.967
2023-11-23T11:28:14.449Z,4.930
2023-11-23T11:29:14.024Z,4.895
2023-11-23T11:30:14.773Z,4.930
2023-11-23T11:31:15.265Z,5.005
2023-11-23T11:32:14.193Z,5.122
2023-11-23T11:33:15.130Z,4.978
2023-11-23T11:34:14.257Z,4.962
2023-11-23T11:35:14.824Z,4.959
2023-11-23T11:36:14.728Z,4.868
2023-11-23T11:38:14.278Z,4.938
2023-11-23T11:39:15.295Z,4.863
2023-11-23T11:40:14.823Z,4.890
2023-11-23T11:41:14.396Z,4.962
2023-11-23T11:42:14.304Z,4.916
2023-11-23T11:45:14.466Z,4.935
2023-11-23T11:46:14.575Z,4.887
2023-11-23T11:47:14.979Z,5.010
2023-11-23T11:48:14.834Z,4.951
2023-11-23T11:49:14.861Z,4.895
2023-11-23T11:50:14.582Z,4.898
2023-11-23T11:51:14.161Z,4.978
2023-11-23T11:52:14.036Z,5.015
2023-11-23T11:53:14.758Z,5.154
2023-11-23T11:54:14.414Z,4.876
2023-11-23T11:55:14.252Z,4.895
2023-11-23T11:56:14.901Z,4.890
2023-11-23T11:57:14.716Z,4.828
2023-11-23T11:58:14.462Z,4.874
2023-11-23T11:59:13.956Z,4.836
2023-11-23T12:00:14.818Z,4.836
2023-11-23T12:01:14.454Z,4.818
2023-11-23T12:02:14.445Z,4.863
2023-11-23T12:03:15.083Z,4.935
2023-11-23T12:04:15.449Z,4.927
2023-11-23T12:05:14.226Z,5.021
2023-11-23T12:06:15.658Z,4.983
2023-11-23T12:07:14.328Z,4.951
2023-11-23T12:08:13.912Z,4.914
2023-11-23T12:09:14.552Z,4.927
2023-11-23T12:10:14.235Z,4.951
2023-11-23T12:11:14.748Z,4.978
2023-11-23T12:12:15.043Z,4.994
2023-11-23T12:13:13.831Z,5.090
2023-11-23T12:14:14.316Z,5.224
2023-11-23T12:16:13.901Z,5.119
2023-11-23T12:17:15.409Z,5.154
2023-11-23T12:18:14.217Z,5.258
2023-11-23T12:19:13.936Z,5.285
2023-11-23T12:20:14.512Z,5.280
2023-11-23T12:21:14.286Z,5.213
2023-11-23T12:22:13.979Z,5.162
2023-11-23T12:23:14.548Z,5.309
2023-11-23T12:24:14.200Z,5.274
2023-11-23T12:25:14.216Z,5.346
2023-11-23T12:26:14.928Z,5.352
2023-11-23T12:27:15.522Z,5.234
2023-11-23T12:28:14.690Z,5.058
2023-11-23T12:29:14.774Z,5.232
2023-11-23T12:30:14.653Z,5.282
2023-11-23T12:31:14.344Z,5.208
2023-11-23T12:34:14.936Z,5.261
2023-11-23T12:35:14.492Z,5.269
2023-11-23T12:36:14.376Z,5.290
2023-11-23T12:37:14.100Z,5.224
2023-11-23T12:38:14.802Z,5.285
2023-11-23T12:40:14.281Z,5.360
2023-11-23T12:41:17.730Z,5.266
2023-11-23T12:43:13.949Z,5.373
2023-11-23T12:44:14.540Z,5.349
2023-11-23T12:45:14.248Z,5.373
2023-11-23T12:46:14.350Z,5.384
2023-11-23T12:47:14.615Z,5.341
2023-11-23T12:48:14.450Z,5.405
2023-11-23T12:50:15.078Z,5.389
2023-11-23T12:51:14.715Z,5.405
2023-11-23T12:52:14.262Z,5.491
2023-11-23T12:53:14.777Z,5.362
2023-11-23T12:54:14.391Z,5.496
2023-11-23T12:55:13.957Z,5.504
2023-11-23T12:56:14.587Z,5.563
2023-11-23T12:57:14.247Z,5.587
2023-11-23T13:00:14.356Z,5.563
2023-11-23T13:01:13.991Z,5.448
2023-11-23T13:02:14.850Z,5.483
2023-11-23T13:03:15.149Z,5.485
2023-11-23T13:04:15.818Z,5.483
2023-11-23T13:05:14.751Z,5.437
2023-11-23T13:06:14.380Z,5.448
2023-11-23T13:07:14.166Z,5.485
2023-11-23T13:08:14.861Z,5.512
2023-11-23T13:10:14.485Z,5.549
2023-11-23T13:11:14.028Z,5.480
2023-11-23T13:12:15.049Z,5.576
2023-11-23T13:13:14.672Z,5.480
2023-11-23T13:14:14.219Z,5.523
2023-11-23T13:15:15.342Z,5.435
2023-11-23T13:16:14.041Z,5.360
2023-11-23T13:17:14.980Z,5.475
2023-11-23T13:18:15.659Z,5.440
2023-11-23T13:19:30.482Z,5.402
2023-11-23T13:21:14.346Z,5.512
2023-11-23T13:22:14.167Z,5.461
2023-11-23T13:23:14.693Z,5.539
2023-11-23T13:24:14.318Z,5.600
2023-11-23T13:25:13.998Z,5.651
2023-11-23T13:26:14.575Z,5.613
2023-11-23T13:27:14.227Z,5.699
2023-11-23T13:28:14.917Z,5.608
2023-11-23T13:29:14.521Z,5.675
2023-11-23T13:30:14.274Z,5.619
2023-11-23T13:31:14.289Z,5.539
2023-11-23T13:32:14.925Z,5.635
2023-11-23T13:33:14.983Z,5.608
2023-11-23T13:34:13.887Z,5.635
2023-11-23T13:35:14.780Z,5.648
2023-11-23T13:36:14.363Z,5.595
2023-11-23T13:37:14.140Z,5.667
2023-11-23T13:38:14.811Z,5.760
2023-11-23T13:39:17.905Z,5.718
2023-11-23T13:42:14.833Z,5.760
2023-11-23T13:43:14.652Z,5.661
2023-11-23T13:45:18.805Z,5.672
2023-11-23T13:46:14.551Z,5.710
2023-11-23T13:47:14.275Z,5.726
2023-11-23T13:48:14.498Z,5.683
2023-11-23T13:49:14.573Z,5.702
2023-11-23T13:50:14.202Z,5.699
2023-11-23T13:51:14.875Z,5.635
2023-11-23T13:52:14.134Z,5.694
2023-11-23T13:53:14.685Z,5.742
2023-11-23T13:54:14.447Z,5.699
2023-11-23T13:55:14.125Z,5.739
2023-11-23T13:56:14.681Z,5.771
2023-11-23T13:58:14.068Z,5.718
2023-11-23T13:59:14.932Z,5.792
2023-11-23T14:00:14.550Z,5.803
2023-11-23T14:01:14.218Z,5.774
2023-11-23T14:02:14.574Z,5.755
2023-11-23T14:03:15.710Z,5.827
2023-11-23T14:04:14.984Z,5.867
2023-11-23T14:05:14.663Z,5.800
2023-11-23T14:07:13.942Z,5.800
2023-11-23T14:08:14.604Z,5.774
2023-11-23T14:09:14.381Z,5.792
2023-11-23T14:10:13.987Z,5.886
2023-11-23T14:11:14.535Z,5.800
2023-11-23T14:12:14.240Z,5.811
2023-11-23T14:14:14.648Z,5.806
2023-11-23T14:15:17.243Z,5.776
2023-11-23T14:16:14.224Z,5.755
2023-11-23T14:17:14.830Z,5.763
2023-11-23T14:19:14.665Z,5.787
2023-11-23T14:20:14.003Z,5.808
2023-11-23T14:21:15.074Z,5.790
2023-11-23T14:24:15.096Z,5.808
2023-11-23T14:25:14.793Z,5.768
2023-11-23T14:26:14.405Z,5.747
2023-11-23T14:27:14.174Z,5.747
2023-11-23T14:28:14.897Z,5.736
2023-11-23T14:31:14.149Z,5.763
2023-11-23T14:32:14.736Z,5.784
2023-11-23T14:33:14.591Z,5.720
2023-11-23T14:34:14.784Z,5.731
2023-11-23T14:35:14.382Z,5.776
2023-11-23T14:36:15.207Z,5.750
2023-11-23T14:37:15.159Z,5.806
2023-11-23T14:38:15.023Z,5.718
2023-11-23T14:39:14.757Z,5.755
2023-11-23T14:40:14.471Z,5.739
2023-11-23T14:42:14.789Z,5.792
2023-11-23T14:43:15.234Z,5.790
2023-11-23T14:45:14.509Z,5.838
2023-11-23T14:46:14.504Z,5.800
2023-11-23T14:47:14.138Z,5.822
2023-11-23T14:48:15.130Z,5.864
2023-11-23T14:49:14.012Z,5.776
2023-11-23T14:50:14.755Z,5.790
2023-11-23T14:51:14.542Z,5.848
2023-11-23T14:52:14.275Z,5.875
2023-11-23T14:53:15.088Z,5.864
2023-11-23T14:54:31.735Z,5.843